createdAt,value
2022-12-15T00:04:53.389Z,-2.88
2022-12-15T00:10:33.084Z,-2.76
2022-12-15T00:16:12.385Z,-2.75
2022-12-15T00:21:51.761Z,-2.62
2022-12-15T00:27:31.022Z,-2.66
2022-12-15T00:33:10.630Z,-2.77
2022-12-15T00:38:44.238Z,-2.74
2022-12-15T00:44:05.316Z,-2.56
2022-12-15T00:49:47.336Z,-2.40
2022-12-15T00:55:27.202Z,-2.23
2022-12-15T01:01:06.614Z,-2.35
2022-12-15T01:06:45.732Z,-2.66
2022-12-15T01:12:25.135Z,-2.61
2022-12-15T01:18:04.618Z,-2.58
2022-12-15T01:23:26.220Z,-2.56
2022-12-15T01:28:47.065Z,-2.41
2022-12-15T01:34:07.796Z,-2.27
2022-12-15T01:39:48.319Z,-2.57
2022-12-15T01:45:24.376Z,-2.67
2022-12-15T01:51:31.818Z,-2.66
2022-12-15T01:57:03.129Z,-2.56
2022-12-15T02:02:27.104Z,-2.42
2022-12-15T02:07:48.231Z,-2.20
2022-12-15T02:13:29.080Z,-2.28
2022-12-15T02:19:34.396Z,-2.19
2022-12-15T02:25:11.543Z,-2.27
2022-12-15T02:30:45.020Z,-2.47
2022-12-15T02:36:47.654Z,-2.53
2022-12-15T02:42:10.767Z,-2.41
2022-12-15T02:47:46.324Z,-2.61
2022-12-15T02:53:10.501Z,-2.57
2022-12-15T02:58:47.025Z,-2.65
2022-12-15T03:04:10.330Z,-2.60
2022-12-15T03:09:31.936Z,-2.72
2022-12-15T03:14:52.463Z,-2.87
2022-12-15T03:20:13.293Z,-2.89
2022-12-15T03:25:33.959Z,-3.10
2022-12-15T03:30:54.720Z,-3.09
2022-12-15T03:36:15.322Z,-3.24
2022-12-15T03:41:36.143Z,-3.29
2022-12-15T03:47:02.775Z,-3.31
2022-12-15T03:52:24.236Z,-3.38
2022-12-15T03:57:45.284Z,-3.11
2022-12-15T04:03:06.275Z,-3.14
2022-12-15T04:08:27.046Z,-3.09
2022-12-15T04:13:48.040Z,-3.06
2022-12-15T04:19:27.679Z,-2.98
2022-12-15T04:25:06.929Z,-3.20
2022-12-15T04:30:46.246Z,-3.27
2022-12-15T04:36:29.000Z,-3.22
2022-12-15T04:42:08.814Z,-3.32
2022-12-15T04:47:47.936Z,-3.14
2022-12-15T04:53:33.555Z,-3.33
2022-12-15T04:59:13.522Z,-3.58
2022-12-15T05:04:52.788Z,-3.64
2022-12-15T05:10:32.032Z,-3.55
2022-12-15T05:16:11.792Z,-3.50
2022-12-15T05:21:51.048Z,-3.42
2022-12-15T05:27:30.313Z,-3.47
2022-12-15T05:32:51.059Z,-3.63
2022-12-15T05:38:11.726Z,-3.50
2022-12-15T05:43:32.605Z,-3.30
2022-12-15T05:48:53.512Z,-3.27
2022-12-15T05:54:17.747Z,-3.11
2022-12-15T05:59:38.496Z,-3.12
2022-12-15T06:04:59.160Z,-3.15
2022-12-15T06:10:19.859Z,-3.22
2022-12-15T06:15:40.741Z,-3.27
2022-12-15T06:21:07.215Z,-2.96
2022-12-15T06:26:34.467Z,-2.18
2022-12-15T06:31:55.536Z,-2.47
2022-12-15T06:37:16.594Z,-2.62
2022-12-15T06:42:37.260Z,-2.80
2022-12-15T06:48:01.467Z,-2.89
2022-12-15T06:53:24.169Z,-2.87
2022-12-15T06:58:44.793Z,-2.77
2022-12-15T07:04:05.786Z,-2.93
2022-12-15T07:09:27.645Z,-2.99
2022-12-15T07:14:53.322Z,-3.09
2022-12-15T07:20:14.361Z,-3.00
2022-12-15T07:25:39.339Z,-3.03
2022-12-15T07:31:05.728Z,-3.07
2022-12-15T07:36:27.810Z,-2.99
2022-12-15T07:41:48.471Z,-2.89
2022-12-15T07:47:10.240Z,-2.87
2022-12-15T07:52:31.204Z,-2.84
2022-12-15T07:57:52.199Z,-2.94
2022-12-15T08:03:13.117Z,-2.89
2022-12-15T08:08:35.037Z,-2.90
2022-12-15T08:14:05.610Z,-2.90
2022-12-15T08:19:28.413Z,-2.94
2022-12-15T08:24:49.051Z,-1.43
2022-12-15T08:30:10.251Z,-1.61
2022-12-15T08:35:55.818Z,-1.49
2022-12-15T08:41:14.845Z,-1.94
2022-12-15T08:46:35.837Z,-2.20
2022-12-15T08:51:56.561Z,-2.18
2022-12-15T08:57:17.209Z,-2.17
2022-12-15T09:02:38.098Z,-2.24
2022-12-15T09:08:04.603Z,-2.37
2022-12-15T09:13:28.305Z,-2.56
2022-12-15T09:18:52.823Z,-2.46
2022-12-15T09:24:20.651Z,-2.26
2022-12-15T09:29:46.961Z,-2.12
2022-12-15T09:35:07.863Z,-1.94
2022-12-15T09:40:28.948Z,-1.77
2022-12-15T09:46:12.752Z,-1.87
2022-12-15T09:51:38.837Z,-1.81
2022-12-15T09:57:08.025Z,-1.83
2022-12-15T10:02:47.282Z,-1.97
2022-12-15T10:08:11.032Z,-1.72
2022-12-15T10:13:40.612Z,-1.52
2022-12-15T10:19:02.271Z,-1.27
2022-12-15T10:24:59.695Z,-1.18
2022-12-15T10:30:05.269Z,-1.24
2022-12-15T10:35:30.418Z,-1.10
2022-12-15T10:41:12.958Z,-0.84
2022-12-15T10:46:33.832Z,-0.72
2022-12-15T10:52:00.578Z,-0.47
2022-12-15T10:57:31.561Z,-0.24
2022-12-15T11:02:52.834Z,-0.07
2022-12-15T11:08:17.469Z,0.04
2022-12-15T11:13:39.527Z,0.24
2022-12-15T11:19:36.425Z,0.35
2022-12-15T11:25:05.632Z,0.40
2022-12-15T11:30:33.226Z,0.47
2022-12-15T11:36:32.932Z,0.46
2022-12-15T11:42:25.186Z,0.65
2022-12-15T11:48:21.444Z,0.68
2022-12-15T11:53:56.252Z,0.82
2022-12-15T11:59:42.030Z,1.14
2022-12-15T12:05:27.070Z,1.14
2022-12-15T12:11:07.485Z,1.15
2022-12-15T12:16:54.870Z,1.33
2022-12-15T12:22:25.959Z,1.47
2022-12-15T12:27:55.433Z,1.47
2022-12-15T12:33:39.761Z,1.28
2022-12-15T12:39:01.379Z,1.19
2022-12-15T12:44:37.585Z,0.90
2022-12-15T12:50:06.884Z,0.52
2022-12-15T12:55:41.394Z,0.23
2022-12-15T13:01:05.594Z,0.08
2022-12-15T13:06:35.337Z,-0.14
2022-12-15T13:12:03.218Z,-0.13
2022-12-15T13:17:42.029Z,-0.16
2022-12-15T13:23:21.355Z,-0.24
2022-12-15T13:28:45.945Z,0.02
2022-12-15T13:34:17.992Z,-0.01
2022-12-15T13:39:54.963Z,0.14
2022-12-15T13:45:43.568Z,-0.09
2022-12-15T13:51:18.382Z,-0.23
2022-12-15T13:56:51.697Z,-0.07
2022-12-15T14:02:29.965Z,-0.29
2022-12-15T14:07:58.333Z,-0.29
2022-12-15T14:13:24.559Z,-0.16
2022-12-15T14:19:02.161Z,-0.28
2022-12-15T14:24:40.837Z,-0.21
2022-12-15T14:30:25.656Z,-0.22
2022-12-15T14:35:50.230Z,0.30
2022-12-15T14:41:25.087Z,0.23
2022-12-15T14:46:47.605Z,0.32
2022-12-15T14:52:26.054Z,0.15
2022-12-15T14:57:47.925Z,0.70
2022-12-15T15:03:26.271Z,0.54
2022-12-15T15:08:52.702Z,0.56
2022-12-15T15:14:19.142Z,0.29
2022-12-15T15:19:53.418Z,-0.05
2022-12-15T15:25:39.352Z,-0.25
2022-12-15T15:31:06.916Z,-0.37
2022-12-15T15:36:36.421Z,-0.22
2022-12-15T15:41:57.190Z,-0.45
2022-12-15T15:47:25.192Z,0.35
2022-12-15T15:52:45.952Z,-0.31
2022-12-15T15:58:16.151Z,-0.67
2022-12-15T16:03:37.257Z,-0.65
2022-12-15T16:08:58.270Z,-0.68
2022-12-15T16:14:19.106Z,-0.98
2022-12-15T16:19:40.073Z,-1.44
2022-12-15T16:25:01.892Z,-1.55
2022-12-15T16:30:25.830Z,-1.62
2022-12-15T16:35:49.944Z,-1.77
2022-12-15T16:41:16.397Z,-1.95
2022-12-15T16:46:37.779Z,-1.76
2022-12-15T16:51:59.074Z,-2.03
2022-12-15T16:57:20.343Z,-2.02
2022-12-15T17:02:42.129Z,-2.05
2022-12-15T17:08:06.617Z,-2.06
2022-12-15T17:13:41.893Z,-2.24
2022-12-15T17:19:04.438Z,-2.26
2022-12-15T17:24:25.443Z,-1.63
2022-12-15T17:29:46.488Z,-1.45
2022-12-15T17:35:08.088Z,-1.71
2022-12-15T17:40:29.599Z,-2.04
2022-12-15T17:46:16.090Z,-2.31
2022-12-15T17:51:37.588Z,-2.64
2022-12-15T17:56:58.734Z,-2.80
2022-12-15T18:02:19.760Z,-3.06
2022-12-15T18:07:41.154Z,-3.26
2022-12-15T18:13:02.334Z,-3.35
2022-12-15T18:18:24.330Z,-3.35
2022-12-15T18:23:47.553Z,-3.22
2022-12-15T18:29:17.986Z,-3.21
2022-12-15T18:34:38.957Z,-3.13
2022-12-15T18:40:04.492Z,-3.07
2022-12-15T18:45:28.416Z,-3.15
2022-12-15T18:50:54.671Z,-3.30
2022-12-15T18:56:18.169Z,-3.26
2022-12-15T19:01:39.300Z,-3.22
2022-12-15T19:07:06.604Z,-3.14
2022-12-15T19:12:27.680Z,-2.91
2022-12-15T19:18:06.849Z,-3.00
2022-12-15T19:23:28.908Z,-3.17
2022-12-15T19:28:49.956Z,-3.03
2022-12-15T19:34:11.034Z,-2.80
2022-12-15T19:39:35.203Z,-2.80
2022-12-15T19:44:55.873Z,-2.89
2022-12-15T19:50:25.197Z,-2.82
2022-12-15T19:55:46.128Z,-2.85
2022-12-15T20:01:10.864Z,-3.03
2022-12-15T20:06:34.118Z,-3.00
2022-12-15T20:11:55.129Z,-2.92
2022-12-15T20:17:15.735Z,-2.77
2022-12-15T20:22:36.530Z,-2.81
2022-12-15T20:28:00.326Z,-3.14
2022-12-15T20:33:21.183Z,-3.23
2022-12-15T20:38:43.067Z,-3.24
2022-12-15T20:44:07.036Z,-3.27
2022-12-15T20:49:30.521Z,-3.35
2022-12-15T20:54:53.210Z,-3.39
2022-12-15T21:00:14.747Z,-3.46
2022-12-15T21:05:35.473Z,-3.48
2022-12-15T21:11:01.316Z,-3.75
2022-12-15T21:16:28.144Z,-3.97
2022-12-15T21:21:54.924Z,-4.03
2022-12-15T21:27:19.244Z,-4.03
2022-12-15T21:32:40.026Z,-4.00
2022-12-15T21:38:01.173Z,-3.97
2022-12-15T21:43:26.585Z,-3.83
2022-12-15T21:49:06.187Z,-3.65
2022-12-15T21:54:32.603Z,-3.86
2022-12-15T21:59:53.179Z,-3.91
2022-12-15T22:05:16.905Z,-3.83
2022-12-15T22:10:39.308Z,-3.88
2022-12-15T22:16:00.022Z,-3.75
2022-12-15T22:21:20.752Z,-3.60
2022-12-15T22:26:41.863Z,-3.41
2022-12-15T22:32:05.768Z,-3.30
2022-12-15T22:37:27.104Z,-3.55
2022-12-15T22:42:53.633Z,-3.63
2022-12-15T22:48:16.588Z,-3.49
2022-12-15T22:53:37.283Z,-3.40
2022-12-15T22:59:03.110Z,-3.35
2022-12-15T23:04:24.921Z,-3.20
2022-12-15T23:09:45.824Z,-3.20
2022-12-15T23:15:25.503Z,-3.09
2022-12-15T23:20:46.145Z,-3.02
2022-12-15T23:26:07.026Z,-3.14
2022-12-15T23:31:27.818Z,-3.13
2022-12-15T23:36:48.441Z,-3.10
2022-12-15T23:42:10.999Z,-3.08
2022-12-15T23:47:31.977Z,-3.15
2022-12-15T23:52:52.893Z,-3.29
2022-12-15T23:58:15.559Z,-3.49
